createdAt,value
2022-08-29T00:01:42.627Z,23.00
2022-08-29T00:04:33.009Z,23.00
2022-08-29T00:07:21.724Z,22.90
2022-08-29T00:10:10.901Z,23.00
2022-08-29T00:12:59.913Z,22.90
2022-08-29T00:15:48.433Z,22.80
2022-08-29T00:18:37.262Z,22.80
2022-08-29T00:21:27.236Z,22.70
2022-08-29T00:24:16.067Z,22.70
2022-08-29T00:27:04.679Z,22.70
2022-08-29T00:29:53.161Z,22.70
2022-08-29T00:32:41.849Z,22.70
2022-08-29T00:35:33.376Z,22.70
2022-08-29T00:38:27.839Z,22.70
2022-08-29T00:41:16.943Z,22.70
2022-08-29T00:44:05.781Z,22.70
2022-08-29T00:46:56.167Z,22.70
2022-08-29T00:49:46.421Z,22.70
2022-08-29T00:52:37.447Z,22.70
2022-08-29T00:55:31.036Z,22.60
2022-08-29T00:58:24.133Z,22.60
2022-08-29T01:01:13.153Z,22.60
2022-08-29T01:04:01.741Z,22.60
2022-08-29T01:06:50.333Z,22.60
2022-08-29T01:09:39.770Z,22.60
2022-08-29T01:12:28.639Z,22.50
2022-08-29T01:15:17.107Z,22.50
2022-08-29T01:18:05.908Z,22.40
2022-08-29T01:21:02.820Z,22.40
2022-08-29T01:23:55.880Z,22.30
2022-08-29T01:26:46.601Z,22.30
2022-08-29T01:29:36.097Z,22.20
2022-08-29T01:32:25.319Z,22.20
2022-08-29T01:35:14.005Z,22.10
2022-08-29T01:38:02.495Z,22.00
2022-08-29T01:40:50.956Z,22.00
2022-08-29T01:43:42.723Z,22.00
2022-08-29T01:46:33.338Z,21.90
2022-08-29T01:49:22.266Z,21.90
2022-08-29T01:52:10.858Z,21.80
2022-08-29T01:54:59.602Z,21.80
2022-08-29T01:57:48.152Z,21.80
2022-08-29T02:00:38.478Z,21.70
2022-08-29T02:03:27.190Z,21.70
2022-08-29T02:06:15.799Z,21.60
2022-08-29T02:09:05.287Z,21.60
2022-08-29T02:11:54.641Z,21.60
2022-08-29T02:14:43.202Z,21.60
2022-08-29T02:17:33.049Z,21.50
2022-08-29T02:20:21.654Z,21.40
2022-08-29T02:23:27.163Z,21.40
2022-08-29T02:26:18.561Z,21.30
2022-08-29T02:29:07.017Z,21.30
2022-08-29T02:31:55.819Z,21.20
2022-08-29T02:34:48.393Z,21.20
2022-08-29T02:37:37.282Z,21.10
2022-08-29T02:40:31.658Z,21.00
2022-08-29T02:43:20.669Z,21.00
2022-08-29T02:46:09.647Z,20.90
2022-08-29T02:49:01.011Z,20.80
2022-08-29T02:51:51.248Z,20.80
2022-08-29T02:54:39.702Z,20.70
2022-08-29T02:57:28.192Z,20.60
2022-08-29T03:00:19.651Z,20.60
2022-08-29T03:03:08.086Z,20.50
2022-08-29T03:05:57.296Z,20.50
2022-08-29T03:08:47.211Z,20.50
2022-08-29T03:11:35.716Z,20.40
2022-08-29T03:14:24.223Z,20.30
2022-08-29T03:17:12.680Z,20.30
2022-08-29T03:20:01.133Z,20.30
2022-08-29T03:22:49.945Z,20.20
2022-08-29T03:25:39.884Z,20.20
2022-08-29T03:28:28.409Z,20.20
2022-08-29T03:31:17.174Z,20.10
2022-08-29T03:34:05.899Z,20.10
2022-08-29T03:36:54.436Z,20.00
2022-08-29T03:39:42.927Z,20.00
2022-08-29T03:42:33.130Z,20.00
2022-08-29T03:45:21.807Z,20.00
2022-08-29T03:48:10.218Z,19.90
2022-08-29T03:50:58.662Z,19.90
2022-08-29T03:53:47.148Z,19.90
2022-08-29T03:56:36.180Z,19.80
2022-08-29T03:59:26.585Z,19.80
2022-08-29T04:02:15.627Z,19.80
2022-08-29T04:05:11.071Z,19.70
2022-08-29T04:08:00.227Z,19.70
2022-08-29T04:10:49.196Z,19.70
2022-08-29T04:13:37.714Z,19.70
2022-08-29T04:16:30.971Z,19.70
2022-08-29T04:19:19.863Z,19.70
2022-08-29T04:22:09.168Z,19.70
2022-08-29T04:24:57.665Z,19.60
2022-08-29T04:27:46.177Z,19.60
2022-08-29T04:30:35.043Z,19.60
2022-08-29T04:33:26.344Z,19.60
2022-08-29T04:36:15.126Z,19.60
2022-08-29T04:39:03.784Z,19.60
2022-08-29T04:41:52.602Z,19.60
2022-08-29T04:44:41.145Z,19.60
2022-08-29T04:47:29.623Z,19.60
2022-08-29T04:50:21.925Z,19.60
2022-08-29T04:53:10.414Z,19.60
2022-08-29T04:55:59.007Z,19.60
2022-08-29T04:58:47.599Z,19.60
2022-08-29T05:01:36.812Z,19.60
2022-08-29T05:04:25.456Z,19.60
2022-08-29T05:07:15.247Z,19.50
2022-08-29T05:10:07.519Z,19.50
2022-08-29T05:12:56.000Z,19.50
2022-08-29T05:15:45.119Z,19.50
2022-08-29T05:18:33.758Z,19.50
2022-08-29T05:21:27.106Z,19.50
2022-08-29T05:24:17.011Z,19.50
2022-08-29T05:27:09.251Z,19.50
2022-08-29T05:29:58.456Z,19.50
2022-08-29T05:32:47.160Z,19.60
2022-08-29T05:35:35.744Z,19.60
2022-08-29T05:38:24.232Z,19.50
2022-08-29T05:41:14.136Z,19.50
2022-08-29T05:44:02.865Z,19.50
2022-08-29T05:46:51.426Z,19.50
2022-08-29T05:49:40.677Z,19.50
2022-08-29T05:52:29.462Z,19.50
2022-08-29T05:55:18.020Z,19.70
2022-08-29T05:58:07.950Z,19.90
2022-08-29T06:00:56.561Z,20.00
2022-08-29T06:03:46.130Z,20.50
2022-08-29T06:06:34.695Z,20.80
2022-08-29T06:09:23.174Z,21.20
2022-08-29T06:12:12.896Z,21.50
2022-08-29T06:15:02.858Z,21.80
2022-08-29T06:17:51.550Z,22.10
2022-08-29T06:20:40.248Z,22.40
2022-08-29T06:23:28.743Z,22.70
2022-08-29T06:26:19.620Z,23.10
2022-08-29T06:29:10.152Z,23.50
2022-08-29T06:32:00.063Z,23.80
2022-08-29T06:34:48.592Z,24.10
2022-08-29T06:37:37.058Z,24.30
2022-08-29T06:40:25.579Z,24.40
2022-08-29T06:43:14.117Z,24.70
2022-08-29T06:46:02.710Z,24.90
2022-08-29T06:48:52.607Z,25.20
2022-08-29T06:51:43.266Z,25.50
2022-08-29T06:54:31.923Z,25.80
2022-08-29T06:57:20.662Z,26.10
2022-08-29T07:00:21.755Z,26.40
2022-08-29T07:03:11.467Z,26.60
2022-08-29T07:06:01.402Z,26.80
2022-08-29T07:08:55.780Z,26.90
2022-08-29T07:11:45.309Z,27.00
2022-08-29T07:14:33.890Z,27.10
2022-08-29T07:17:25.986Z,27.20
2022-08-29T07:20:14.987Z,27.40
2022-08-29T07:23:04.853Z,27.60
2022-08-29T07:25:53.648Z,27.70
2022-08-29T07:28:47.122Z,27.90
2022-08-29T07:31:35.860Z,28.10
2022-08-29T07:34:24.590Z,28.20
2022-08-29T07:37:13.167Z,28.30
2022-08-29T07:40:03.530Z,28.30
2022-08-29T07:42:52.063Z,28.30
2022-08-29T07:45:41.519Z,28.30
2022-08-29T07:48:30.012Z,28.30
2022-08-29T07:51:21.711Z,28.30
2022-08-29T07:54:11.128Z,28.30
2022-08-29T07:57:01.039Z,28.40
2022-08-29T07:59:49.575Z,28.40
2022-08-29T08:02:38.132Z,28.50
2022-08-29T08:05:26.948Z,28.60
2022-08-29T08:08:15.768Z,28.70
2022-08-29T08:11:05.234Z,28.80
2022-08-29T08:13:55.495Z,28.90
2022-08-29T08:16:44.880Z,28.90
2022-08-29T08:19:33.531Z,28.90
2022-08-29T08:22:21.987Z,28.80
2022-08-29T08:25:10.999Z,28.70
2022-08-29T08:27:59.588Z,28.60
2022-08-29T08:30:49.506Z,28.50
2022-08-29T08:33:39.370Z,28.40
2022-08-29T08:36:29.783Z,28.30
2022-08-29T08:39:18.365Z,28.20
2022-08-29T08:42:13.563Z,28.10
2022-08-29T08:45:08.279Z,28.00
2022-08-29T08:48:03.508Z,28.00
2022-08-29T08:50:56.787Z,28.00
2022-08-29T08:53:48.272Z,28.00
2022-08-29T08:56:39.600Z,28.00
2022-08-29T08:59:31.539Z,27.90
2022-08-29T09:02:36.477Z,27.90
2022-08-29T09:05:35.923Z,27.90
2022-08-29T09:08:29.819Z,27.80
2022-08-29T09:11:23.376Z,27.70
2022-08-29T09:14:23.116Z,27.70
2022-08-29T09:17:15.186Z,27.70
2022-08-29T09:20:05.369Z,27.70
2022-08-29T09:23:00.739Z,27.90
2022-08-29T09:25:49.379Z,28.00
2022-08-29T09:28:37.867Z,28.00
2022-08-29T09:31:27.897Z,28.00
2022-08-29T09:34:16.332Z,28.00
2022-08-29T09:37:05.389Z,28.10
2022-08-29T09:40:00.091Z,28.10
2022-08-29T09:42:53.332Z,28.10
2022-08-29T09:45:41.814Z,28.10
2022-08-29T09:48:35.329Z,28.10
2022-08-29T09:51:28.923Z,28.10
2022-08-29T09:54:24.629Z,28.10
2022-08-29T09:57:23.487Z,28.10
2022-08-29T10:00:14.654Z,28.20
2022-08-29T10:03:05.243Z,28.30
2022-08-29T10:06:07.553Z,28.40
2022-08-29T10:09:03.485Z,28.50
2022-08-29T10:11:56.629Z,28.60
2022-08-29T10:14:50.443Z,28.70
2022-08-29T10:18:00.079Z,28.90
2022-08-29T10:21:00.206Z,29.00
2022-08-29T10:24:03.561Z,29.20
2022-08-29T10:26:57.343Z,29.40
2022-08-29T10:30:03.000Z,29.50
2022-08-29T10:33:16.038Z,29.60
2022-08-29T10:36:09.371Z,29.80
2022-08-29T10:39:01.653Z,30.00
2022-08-29T10:41:56.517Z,30.10
2022-08-29T10:44:56.281Z,30.20
2022-08-29T10:47:52.152Z,30.50
2022-08-29T10:50:45.284Z,30.70
2022-08-29T10:53:37.542Z,31.00
2022-08-29T10:56:29.819Z,31.30
2022-08-29T10:59:27.526Z,31.50
2022-08-29T11:02:23.016Z,31.70
2022-08-29T11:05:15.954Z,31.80
2022-08-29T11:08:16.191Z,31.80
2022-08-29T11:11:04.948Z,31.90
2022-08-29T11:13:56.938Z,32.10
2022-08-29T11:16:47.635Z,32.00
2022-08-29T11:19:47.182Z,32.10
2022-08-29T11:22:38.682Z,32.20
2022-08-29T11:25:27.623Z,32.30
2022-08-29T11:28:22.012Z,32.50
2022-08-29T11:31:15.969Z,32.50
2022-08-29T11:34:14.855Z,32.70
2022-08-29T11:37:36.747Z,32.70
2022-08-29T11:41:26.293Z,32.70
2022-08-29T11:43:54.209Z,32.80
2022-08-29T11:46:44.494Z,32.90
2022-08-29T11:49:42.029Z,32.90
2022-08-29T11:52:31.933Z,33.00
2022-08-29T11:55:35.720Z,33.20
2022-08-29T11:58:46.606Z,33.20
2022-08-29T12:02:00.575Z,33.40
2022-08-29T12:04:54.942Z,33.40
2022-08-29T12:07:48.065Z,33.50
2022-08-29T12:10:52.494Z,33.50
2022-08-29T12:14:04.812Z,33.50
2022-08-29T12:16:53.972Z,33.60
2022-08-29T12:19:54.125Z,33.60
2022-08-29T12:22:53.290Z,33.60
2022-08-29T12:25:45.823Z,33.70
2022-08-29T12:28:58.081Z,33.80
2022-08-29T12:32:22.947Z,33.90
2022-08-29T12:36:03.248Z,33.90
2022-08-29T12:39:02.180Z,34.00
2022-08-29T12:42:11.089Z,34.10
2022-08-29T12:45:01.992Z,34.20
2022-08-29T12:47:53.602Z,34.30
2022-08-29T12:50:45.296Z,34.30
2022-08-29T12:53:35.088Z,34.40
2022-08-29T12:56:25.762Z,34.40
2022-08-29T12:59:18.568Z,34.40
2022-08-29T13:02:07.278Z,34.40
2022-08-29T13:04:56.416Z,34.50
2022-08-29T13:07:54.980Z,34.50
2022-08-29T13:10:53.500Z,34.60
2022-08-29T13:13:43.564Z,34.60
2022-08-29T13:16:32.542Z,34.70
2022-08-29T13:19:21.584Z,34.80
2022-08-29T13:22:13.569Z,34.80
2022-08-29T13:25:05.809Z,34.80
2022-08-29T13:28:09.861Z,34.80
2022-08-29T13:31:34.465Z,34.80
2022-08-29T13:34:23.326Z,34.80
2022-08-29T13:37:29.378Z,34.90
2022-08-29T13:40:33.880Z,34.90
2022-08-29T13:43:36.930Z,35.00
2022-08-29T13:46:28.057Z,35.10
2022-08-29T13:49:22.488Z,35.20
2022-08-29T13:52:11.557Z,35.10
2022-08-29T13:55:00.043Z,34.90
2022-08-29T13:57:50.191Z,34.70
2022-08-29T14:00:38.754Z,34.50
2022-08-29T14:03:28.688Z,34.30
2022-08-29T14:06:18.682Z,34.20
2022-08-29T14:09:07.403Z,34.20
2022-08-29T14:11:55.849Z,34.30
2022-08-29T14:14:44.998Z,34.30
2022-08-29T14:17:33.581Z,34.40
2022-08-29T14:20:22.032Z,34.50
2022-08-29T14:23:11.831Z,34.50
2022-08-29T14:26:00.359Z,34.50
2022-08-29T14:28:48.948Z,34.50
2022-08-29T14:31:37.984Z,34.50
2022-08-29T14:34:30.847Z,34.50
2022-08-29T14:37:21.232Z,34.50
2022-08-29T14:40:11.564Z,34.60
2022-08-29T14:43:00.209Z,34.60
2022-08-29T14:45:48.753Z,34.70
2022-08-29T14:48:37.246Z,34.70
2022-08-29T14:51:25.750Z,34.70
2022-08-29T14:54:14.850Z,34.80
2022-08-29T14:57:04.813Z,34.70
2022-08-29T14:59:53.435Z,34.70
2022-08-29T15:02:41.964Z,34.70
2022-08-29T15:05:30.589Z,34.70
2022-08-29T15:08:19.730Z,34.70
2022-08-29T15:11:09.161Z,34.60
2022-08-29T15:14:04.376Z,34.60
2022-08-29T15:16:53.535Z,34.60
2022-08-29T15:20:31.661Z,34.60
2022-08-29T15:22:51.980Z,34.50
2022-08-29T15:25:45.136Z,34.30
2022-08-29T15:28:40.550Z,34.30
2022-08-29T15:31:30.950Z,34.20
2022-08-29T15:34:22.040Z,34.10
2022-08-29T15:37:11.652Z,34.10
2022-08-29T15:40:00.277Z,34.10
2022-08-29T15:42:48.890Z,34.10
2022-08-29T15:48:28.356Z,34.10
2022-08-29T15:51:16.821Z,34.00
2022-08-29T15:54:05.587Z,34.00
2022-08-29T15:56:54.204Z,34.00
2022-08-29T15:59:57.608Z,33.90
2022-08-29T16:02:47.094Z,33.80
2022-08-29T16:05:38.210Z,33.70
2022-08-29T16:08:29.853Z,33.60
2022-08-29T16:11:18.508Z,33.50
2022-08-29T16:14:40.912Z,33.40
2022-08-29T16:17:15.577Z,33.40
2022-08-29T16:20:05.627Z,33.30
2022-08-29T16:22:56.158Z,33.20
2022-08-29T16:25:44.825Z,33.10
2022-08-29T16:28:33.347Z,33.10
2022-08-29T16:31:21.862Z,32.90
2022-08-29T16:34:10.347Z,32.90
2022-08-29T16:36:59.362Z,32.80
2022-08-29T16:39:49.124Z,32.60
2022-08-29T16:42:39.160Z,32.60
2022-08-29T16:45:27.617Z,32.50
2022-08-29T16:48:17.674Z,32.40
2022-08-29T16:51:08.160Z,32.30
2022-08-29T16:53:57.835Z,32.20
2022-08-29T16:56:47.732Z,32.10
2022-08-29T16:59:37.163Z,32.10
2022-08-29T17:02:25.885Z,32.00
2022-08-29T17:05:14.666Z,31.90
2022-08-29T17:08:02.470Z,31.80
2022-08-29T17:10:49.869Z,31.80
2022-08-29T17:13:40.364Z,31.70
2022-08-29T17:16:28.967Z,31.60
2022-08-29T17:19:17.550Z,31.60
2022-08-29T17:22:06.160Z,31.50
2022-08-29T17:24:54.763Z,31.50
2022-08-29T17:28:00.969Z,31.40
2022-08-29T17:30:53.228Z,31.30
2022-08-29T17:33:41.876Z,31.20
2022-08-29T17:36:30.349Z,31.10
2022-08-29T17:39:20.925Z,31.10
2022-08-29T17:42:10.011Z,30.90
2022-08-29T17:44:58.489Z,30.90
2022-08-29T17:47:48.262Z,30.80
2022-08-29T17:50:37.781Z,30.70
2022-08-29T17:53:26.221Z,30.60
2022-08-29T17:56:16.643Z,30.50
2022-08-29T17:59:05.828Z,30.40
2022-08-29T18:01:55.288Z,30.20
2022-08-29T18:04:45.483Z,30.10
2022-08-29T18:07:34.021Z,30.00
2022-08-29T18:10:23.041Z,29.90
2022-08-29T18:13:11.549Z,29.80
2022-08-29T18:16:00.075Z,29.70
2022-08-29T18:18:51.585Z,29.60
2022-08-29T18:21:43.239Z,29.50
2022-08-29T18:24:31.921Z,29.40
2022-08-29T18:27:20.395Z,29.30
2022-08-29T18:30:10.312Z,29.20
2022-08-29T18:32:58.788Z,29.10
2022-08-29T18:35:47.559Z,29.00
2022-08-29T18:38:37.784Z,28.80
2022-08-29T18:41:26.701Z,28.70
2022-08-29T18:44:15.221Z,28.60
2022-08-29T18:47:03.720Z,28.50
2022-08-29T18:50:09.883Z,28.40
2022-08-29T18:52:58.331Z,28.30
2022-08-29T18:55:50.478Z,28.20
2022-08-29T18:58:41.211Z,28.10
2022-08-29T19:01:30.448Z,27.90
2022-08-29T19:04:22.283Z,27.90
2022-08-29T19:07:15.587Z,27.70
2022-08-29T19:10:10.057Z,27.60
2022-08-29T19:13:00.199Z,27.60
2022-08-29T19:15:48.836Z,27.50
2022-08-29T19:18:37.637Z,27.40
2022-08-29T19:21:26.201Z,27.30
2022-08-29T19:24:14.842Z,27.20
2022-08-29T19:27:03.768Z,27.20
2022-08-29T19:29:54.274Z,27.10
2022-08-29T19:32:48.643Z,27.00
2022-08-29T19:35:37.922Z,26.90
2022-08-29T19:38:27.520Z,26.90
2022-08-29T19:41:17.535Z,26.80
2022-08-29T19:44:06.030Z,26.70
2022-08-29T19:46:55.806Z,26.70
2022-08-29T19:49:45.309Z,26.60
2022-08-29T19:52:34.055Z,26.50
2022-08-29T19:55:23.396Z,26.50
2022-08-29T19:58:12.736Z,26.40
2022-08-29T20:01:02.644Z,26.30
2022-08-29T20:03:53.001Z,26.30
2022-08-29T20:06:41.523Z,26.20
2022-08-29T20:09:32.543Z,26.10
2022-08-29T20:12:22.226Z,26.10
2022-08-29T20:15:12.665Z,26.00
2022-08-29T20:18:02.357Z,25.90
2022-08-29T20:20:55.389Z,25.90
2022-08-29T20:23:49.674Z,25.90
2022-08-29T20:26:39.580Z,25.80
2022-08-29T20:29:28.133Z,25.80
2022-08-29T20:32:18.678Z,25.80
2022-08-29T20:35:07.702Z,25.80
2022-08-29T20:37:56.496Z,25.70
2022-08-29T20:40:46.848Z,25.70
2022-08-29T20:43:37.793Z,25.70
2022-08-29T20:46:28.433Z,25.70
2022-08-29T20:49:19.543Z,25.70
2022-08-29T20:52:08.116Z,25.60
2022-08-29T20:54:58.049Z,25.60
2022-08-29T20:57:46.535Z,25.60
2022-08-29T21:00:35.110Z,25.60
2022-08-29T21:03:41.114Z,25.60
2022-08-29T21:06:31.237Z,25.50
2022-08-29T21:09:19.712Z,25.50
2022-08-29T21:12:09.893Z,25.50
2022-08-29T21:14:58.350Z,25.50
2022-08-29T21:17:46.925Z,25.40
2022-08-29T21:20:37.369Z,25.40
2022-08-29T21:23:34.231Z,25.40
2022-08-29T21:26:22.736Z,25.40
2022-08-29T21:29:12.531Z,25.30
2022-08-29T21:32:01.089Z,25.30
2022-08-29T21:34:49.707Z,25.30
2022-08-29T21:37:39.131Z,25.30
2022-08-29T21:40:27.691Z,25.30
2022-08-29T21:43:16.696Z,25.30
2022-08-29T21:46:16.632Z,25.30
2022-08-29T21:49:07.007Z,25.20
2022-08-29T21:51:55.960Z,25.20
2022-08-29T21:54:44.441Z,25.30
2022-08-29T21:57:50.508Z,25.20
2022-08-29T22:00:42.085Z,25.30
2022-08-29T22:03:33.209Z,25.20
2022-08-29T22:06:21.755Z,25.20
2022-08-29T22:09:11.495Z,25.20
2022-08-29T22:12:00.368Z,25.20
2022-08-29T22:15:06.420Z,25.20
2022-08-29T22:17:55.060Z,25.10
2022-08-29T22:20:46.541Z,25.10
2022-08-29T22:23:35.225Z,25.00
2022-08-29T22:26:23.702Z,25.00
2022-08-29T22:29:13.583Z,25.00
2022-08-29T22:32:02.055Z,24.90
2022-08-29T22:34:50.539Z,24.90
2022-08-29T22:37:40.399Z,24.80
2022-08-29T22:40:29.837Z,24.80
2022-08-29T22:43:18.437Z,24.80
2022-08-29T22:46:12.613Z,24.70
2022-08-29T22:49:01.211Z,24.70
2022-08-29T22:51:49.700Z,24.60
2022-08-29T22:54:39.725Z,24.60
2022-08-29T22:57:28.327Z,24.50
2022-08-29T23:00:19.256Z,24.50
2022-08-29T23:03:07.928Z,24.50
2022-08-29T23:05:56.493Z,24.40
2022-08-29T23:08:45.039Z,24.30
2022-08-29T23:11:36.044Z,24.30
2022-08-29T23:14:24.543Z,24.20
2022-08-29T23:17:16.927Z,24.20
2022-08-29T23:20:06.050Z,24.10
2022-08-29T23:22:54.491Z,24.10
2022-08-29T23:25:43.154Z,24.10
2022-08-29T23:28:33.032Z,24.10
2022-08-29T23:31:22.278Z,24.00
2022-08-29T23:34:10.759Z,24.00
2022-08-29T23:36:59.472Z,24.00
2022-08-29T23:39:48.023Z,23.90
2022-08-29T23:42:37.012Z,23.90
2022-08-29T23:45:27.006Z,23.90
2022-08-29T23:48:15.622Z,23.90
2022-08-29T23:51:07.286Z,23.90
2022-08-29T23:53:55.766Z,23.90
2022-08-29T23:56:44.294Z,23.90
2022-08-29T23:59:51.473Z,24.00
